createdAt,value
2023-04-10T00:00:11.738Z,5.17
2023-04-10T00:03:03.303Z,5.13
2023-04-10T00:05:31.421Z,5.10
2023-04-10T00:07:59.113Z,5.08
2023-04-10T00:10:29.260Z,5.09
2023-04-10T00:12:57.582Z,5.08
2023-04-10T00:15:25.388Z,5.10
2023-04-10T00:17:55.356Z,5.13
2023-04-10T00:20:26.065Z,5.14
2023-04-10T00:22:54.525Z,5.11
2023-04-10T00:25:23.104Z,5.09
2023-04-10T00:27:50.879Z,5.06
2023-04-10T00:30:19.644Z,5.02
2023-04-10T00:32:47.782Z,4.96
2023-04-10T00:35:15.651Z,4.89
2023-04-10T00:37:43.301Z,4.81
2023-04-10T00:40:11.289Z,4.75
2023-04-10T00:42:39.720Z,4.68
2023-04-10T00:45:07.771Z,4.62
2023-04-10T00:47:37.738Z,4.58
2023-04-10T00:50:06.398Z,4.53
2023-04-10T00:52:34.553Z,4.45
2023-04-10T00:55:02.376Z,4.39
2023-04-10T00:57:30.089Z,4.35
2023-04-10T00:59:58.179Z,4.34
2023-04-10T01:02:27.032Z,4.32
2023-04-10T01:04:54.892Z,4.32
2023-04-10T01:07:40.395Z,4.30
2023-04-10T01:10:15.687Z,4.26
2023-04-10T01:12:49.403Z,4.21
2023-04-10T01:15:18.954Z,4.18
2023-04-10T01:17:57.229Z,4.13
2023-04-10T01:20:26.657Z,4.07
2023-04-10T01:23:09.488Z,4.00
2023-04-10T01:25:43.510Z,3.94
2023-04-10T01:28:28.460Z,3.87
2023-04-10T01:31:01.285Z,3.80
2023-04-10T01:33:37.519Z,3.75
2023-04-10T01:36:06.557Z,3.69
2023-04-10T01:38:36.252Z,3.67
2023-04-10T01:41:05.327Z,3.68
2023-04-10T01:43:34.239Z,3.69
2023-04-10T01:46:03.858Z,3.73
2023-04-10T01:48:31.781Z,3.76
2023-04-10T01:51:01.622Z,3.75
2023-04-10T01:53:31.425Z,3.70
2023-04-10T01:55:59.878Z,3.65
2023-04-10T01:58:27.612Z,3.63
2023-04-10T02:00:57.232Z,3.57
2023-04-10T02:03:25.326Z,3.50
2023-04-10T02:06:10.338Z,3.45
2023-04-10T02:08:41.300Z,3.42
2023-04-10T02:11:22.639Z,3.39
2023-04-10T02:13:54.094Z,3.35
2023-04-10T02:16:22.683Z,3.32
2023-04-10T02:18:51.611Z,3.30
2023-04-10T02:21:19.385Z,3.28
2023-04-10T02:23:47.086Z,3.24
2023-04-10T02:26:16.414Z,3.20
2023-04-10T02:28:44.110Z,3.14
2023-04-10T02:31:11.861Z,3.10
2023-04-10T02:33:39.656Z,3.07
2023-04-10T02:36:07.757Z,3.04
2023-04-10T02:38:35.700Z,3.01
2023-04-10T02:41:03.562Z,3.00
2023-04-10T02:43:31.373Z,2.99
2023-04-10T02:45:59.971Z,3.00
2023-04-10T02:48:28.970Z,3.02
2023-04-10T02:51:00.227Z,3.04
2023-04-10T02:53:29.420Z,3.06
2023-04-10T02:55:59.479Z,3.10
2023-04-10T02:58:27.926Z,3.12
2023-04-10T03:00:57.819Z,3.15
2023-04-10T03:03:51.506Z,3.15
2023-04-10T03:06:28.712Z,3.13
2023-04-10T03:08:57.369Z,3.09
2023-04-10T03:11:25.065Z,3.00
2023-04-10T03:13:53.238Z,2.94
2023-04-10T03:16:21.207Z,2.89
2023-04-10T03:18:49.173Z,2.83
2023-04-10T03:21:17.189Z,2.79
2023-04-10T03:23:44.878Z,2.73
2023-04-10T03:26:12.558Z,2.63
2023-04-10T03:28:41.352Z,2.57
2023-04-10T03:31:12.269Z,2.56
2023-04-10T03:33:41.179Z,2.57
2023-04-10T03:36:09.239Z,2.54
2023-04-10T03:38:37.048Z,2.52
2023-04-10T03:41:05.500Z,2.56
2023-04-10T03:43:33.777Z,2.66
2023-04-10T03:46:02.459Z,2.77
2023-04-10T03:48:31.772Z,2.87
2023-04-10T03:50:59.742Z,2.90
2023-04-10T03:53:27.784Z,2.90
2023-04-10T03:55:56.040Z,2.89
2023-04-10T03:58:24.844Z,2.84
2023-04-10T04:00:53.145Z,2.81
2023-04-10T04:03:31.154Z,2.80
2023-04-10T04:06:07.414Z,2.80
2023-04-10T04:08:36.438Z,2.79
2023-04-10T04:11:20.257Z,2.77
2023-04-10T04:13:58.784Z,2.74
2023-04-10T04:16:47.235Z,2.74
2023-04-10T04:19:30.144Z,2.76
2023-04-10T04:22:15.293Z,2.76
2023-04-10T04:25:01.735Z,2.74
2023-04-10T04:27:41.704Z,2.74
2023-04-10T04:30:32.537Z,2.72
2023-04-10T04:33:16.231Z,2.69
2023-04-10T04:36:10.334Z,2.66
2023-04-10T04:38:55.667Z,2.63
2023-04-10T04:41:39.274Z,2.63
2023-04-10T04:44:23.987Z,2.67
2023-04-10T04:47:07.629Z,2.73
2023-04-10T04:49:51.369Z,2.79
2023-04-10T04:52:30.629Z,2.83
2023-04-10T04:55:12.848Z,2.85
2023-04-10T04:57:54.790Z,2.86
2023-04-10T05:00:30.806Z,2.89
2023-04-10T05:03:08.479Z,2.95
2023-04-10T05:05:42.584Z,3.00
2023-04-10T05:08:26.523Z,3.07
2023-04-10T05:11:03.777Z,3.14
2023-04-10T05:13:47.378Z,3.20
2023-04-10T05:16:31.068Z,3.27
2023-04-10T05:19:14.981Z,3.31
2023-04-10T05:21:58.710Z,3.35
2023-04-10T05:24:42.464Z,3.38
2023-04-10T05:27:22.707Z,3.40
2023-04-10T05:30:06.837Z,3.44
2023-04-10T05:32:41.803Z,3.48
2023-04-10T05:35:25.651Z,3.53
2023-04-10T05:38:09.511Z,3.59
2023-04-10T05:40:54.117Z,3.63
2023-04-10T05:43:37.838Z,3.67
2023-04-10T05:46:28.359Z,3.73
2023-04-10T05:49:12.054Z,3.80
2023-04-10T05:51:55.784Z,3.86
2023-04-10T05:54:39.659Z,3.91
2023-04-10T05:57:22.106Z,3.97
2023-04-10T06:00:03.734Z,4.05
2023-04-10T06:02:47.546Z,4.13
2023-04-10T06:05:21.554Z,4.22
2023-04-10T06:07:49.642Z,4.30
2023-04-10T06:10:17.304Z,4.39
2023-04-10T06:12:45.603Z,4.48
2023-04-10T06:15:14.666Z,4.56
2023-04-10T06:17:46.238Z,4.65
2023-04-10T06:20:14.147Z,4.71
2023-04-10T06:22:41.876Z,4.75
2023-04-10T06:25:09.943Z,4.83
2023-04-10T06:27:37.725Z,4.89
2023-04-10T06:30:06.153Z,4.95
2023-04-10T06:32:33.935Z,5.04
2023-04-10T06:35:02.565Z,5.13
2023-04-10T06:37:34.033Z,5.24
2023-04-10T06:40:07.275Z,5.37
2023-04-10T06:42:35.267Z,5.54
2023-04-10T06:45:09.435Z,5.68
2023-04-10T06:47:37.148Z,5.79
2023-04-10T06:50:05.329Z,5.89
2023-04-10T06:52:33.043Z,5.96
2023-04-10T06:55:00.865Z,6.03
2023-04-10T06:57:28.853Z,6.11
2023-04-10T06:59:56.733Z,6.17
2023-04-10T07:02:24.661Z,6.23
2023-04-10T07:04:53.690Z,6.30
2023-04-10T07:07:21.751Z,6.36
2023-04-10T07:09:49.496Z,6.45
2023-04-10T07:12:17.181Z,6.55
2023-04-10T07:14:44.905Z,6.65
2023-04-10T07:17:12.645Z,6.77
2023-04-10T07:19:40.518Z,6.86
2023-04-10T07:22:08.232Z,6.93
2023-04-10T07:24:36.208Z,7.01
2023-04-10T07:27:03.996Z,7.12
2023-04-10T07:29:31.760Z,7.22
2023-04-10T07:31:59.640Z,7.30
2023-04-10T07:34:27.588Z,7.40
2023-04-10T07:36:55.276Z,7.49
2023-04-10T07:39:22.956Z,7.57
2023-04-10T07:41:52.830Z,7.64
2023-04-10T07:44:20.588Z,7.72
2023-04-10T07:46:48.314Z,7.80
2023-04-10T07:49:16.224Z,7.89
2023-04-10T07:51:43.953Z,7.99
2023-04-10T07:54:11.640Z,8.10
2023-04-10T07:56:39.346Z,8.20
2023-04-10T07:59:07.057Z,8.29
2023-04-10T08:01:34.792Z,8.41
2023-04-10T08:04:05.597Z,8.51
2023-04-10T08:06:33.912Z,8.60
2023-04-10T08:09:02.144Z,8.69
2023-04-10T08:11:35.267Z,8.81
2023-04-10T08:14:05.427Z,8.96
2023-04-10T08:16:35.616Z,9.08
2023-04-10T08:19:03.748Z,9.20
2023-04-10T08:21:32.177Z,9.30
2023-04-10T08:24:03.777Z,9.40
2023-04-10T08:26:31.550Z,9.51
2023-04-10T08:29:00.636Z,9.60
2023-04-10T08:31:28.927Z,9.67
2023-04-10T08:33:57.425Z,9.72
2023-04-10T08:36:26.596Z,9.76
2023-04-10T08:38:54.333Z,9.82
2023-04-10T08:41:22.097Z,9.88
2023-04-10T08:43:50.926Z,9.96
2023-04-10T08:46:18.679Z,10.04
2023-04-10T08:48:55.043Z,10.13
2023-04-10T08:51:26.774Z,10.23
2023-04-10T08:53:58.410Z,10.32
2023-04-10T08:56:26.850Z,10.41
2023-04-10T08:58:54.830Z,10.46
2023-04-10T09:01:23.018Z,10.52
2023-04-10T09:03:51.443Z,10.57
2023-04-10T09:06:19.334Z,10.63
2023-04-10T09:08:46.993Z,10.68
2023-04-10T09:11:14.706Z,10.72
2023-04-10T09:13:43.869Z,10.78
2023-04-10T09:16:14.957Z,10.84
2023-04-10T09:18:42.902Z,10.91
2023-04-10T09:21:11.839Z,11.00
2023-04-10T09:23:41.065Z,11.08
2023-04-10T09:26:24.682Z,11.17
2023-04-10T09:28:56.783Z,11.25
2023-04-10T09:31:32.084Z,11.33
2023-04-10T09:34:16.079Z,11.41
2023-04-10T09:36:44.897Z,11.46
2023-04-10T09:39:12.795Z,11.49
2023-04-10T09:41:47.962Z,11.53
2023-04-10T09:44:17.232Z,11.59
2023-04-10T09:46:45.502Z,11.66
2023-04-10T09:49:13.297Z,11.76
2023-04-10T09:51:42.606Z,11.83
2023-04-10T09:54:10.306Z,11.89
2023-04-10T09:56:38.945Z,11.95
2023-04-10T09:59:07.440Z,12.01
2023-04-10T10:01:37.556Z,12.05
2023-04-10T10:04:05.725Z,12.09
2023-04-10T10:06:33.617Z,12.16
2023-04-10T10:09:02.910Z,12.22
2023-04-10T10:11:35.408Z,12.29
2023-04-10T10:14:06.764Z,12.38
2023-04-10T10:16:40.394Z,12.43
2023-04-10T10:19:24.580Z,12.52
2023-04-10T10:21:53.257Z,12.57
2023-04-10T10:24:23.482Z,12.63
2023-04-10T10:26:51.881Z,12.68
2023-04-10T10:29:21.306Z,12.75
2023-04-10T10:31:49.388Z,12.80
2023-04-10T10:34:17.702Z,12.87
2023-04-10T10:36:45.690Z,12.89
2023-04-10T10:39:30.400Z,12.94
2023-04-10T10:42:14.021Z,13.01
2023-04-10T10:44:47.944Z,13.07
2023-04-10T10:47:18.361Z,13.13
2023-04-10T10:50:01.974Z,13.19
2023-04-10T10:52:46.040Z,13.27
2023-04-10T10:55:34.702Z,13.35
2023-04-10T10:58:03.462Z,13.42
2023-04-10T11:00:55.015Z,13.47
2023-04-10T11:03:22.997Z,13.50
2023-04-10T11:05:58.624Z,13.53
2023-04-10T11:08:46.792Z,13.60
2023-04-10T11:11:15.941Z,13.67
2023-04-10T11:13:49.859Z,13.75
2023-04-10T11:16:18.421Z,13.82
2023-04-10T11:18:46.179Z,13.86
2023-04-10T11:21:15.514Z,13.91
2023-04-10T11:23:59.411Z,14.00
2023-04-10T11:26:33.232Z,14.08
2023-04-10T11:29:01.562Z,14.16
2023-04-10T11:31:29.536Z,14.21
2023-04-10T11:33:59.947Z,14.33
2023-04-10T11:36:27.898Z,14.39
2023-04-10T11:39:00.013Z,14.46
2023-04-10T11:41:34.705Z,14.56
2023-04-10T11:44:03.630Z,14.66
2023-04-10T11:46:31.782Z,14.75
2023-04-10T11:49:00.579Z,14.83
2023-04-10T11:51:28.708Z,14.91
2023-04-10T11:54:12.466Z,15.02
2023-04-10T11:56:41.499Z,15.17
2023-04-10T11:59:11.040Z,15.32
2023-04-10T12:01:42.701Z,15.45
2023-04-10T12:04:14.513Z,15.57
2023-04-10T12:06:46.902Z,15.71
2023-04-10T12:09:15.981Z,15.90
2023-04-10T12:11:59.750Z,16.07
2023-04-10T12:14:33.567Z,16.21
2023-04-10T12:17:02.423Z,16.36
2023-04-10T12:19:30.858Z,16.54
2023-04-10T12:21:59.575Z,16.67
2023-04-10T12:24:43.627Z,16.84
2023-04-10T12:27:27.674Z,17.10
2023-04-10T12:29:56.959Z,17.39
2023-04-10T12:32:25.617Z,17.69
2023-04-10T12:34:57.249Z,-14.81
2023-04-10T12:37:28.459Z,17.91
2023-04-10T12:40:12.077Z,17.83
2023-04-10T12:42:40.252Z,17.75
2023-04-10T12:45:10.002Z,17.60
2023-04-10T12:47:53.872Z,17.38
2023-04-10T12:50:22.227Z,17.16
2023-04-10T12:53:11.848Z,16.99
2023-04-10T12:55:42.117Z,16.75
2023-04-10T12:58:18.045Z,16.59
2023-04-10T13:00:47.091Z,16.49
2023-04-10T13:03:18.594Z,16.38
2023-04-10T13:05:47.007Z,16.23
2023-04-10T13:08:14.866Z,16.06
2023-04-10T13:10:43.563Z,15.90
2023-04-10T13:13:12.963Z,15.80
2023-04-10T13:15:40.949Z,15.72
2023-04-10T13:18:10.404Z,15.61
2023-04-10T13:20:39.698Z,15.50
2023-04-10T13:23:07.942Z,15.39
2023-04-10T13:25:39.643Z,15.33
2023-04-10T13:28:15.728Z,15.28
2023-04-10T13:30:43.458Z,15.23
2023-04-10T13:33:11.260Z,15.19
2023-04-10T13:35:40.464Z,15.16
2023-04-10T13:38:09.405Z,15.13
2023-04-10T13:40:37.870Z,15.13
2023-04-10T13:43:06.227Z,15.11
2023-04-10T13:45:34.826Z,15.10
2023-04-10T13:48:03.812Z,15.10
2023-04-10T13:50:31.901Z,15.10
2023-04-10T13:52:59.701Z,15.12
2023-04-10T13:55:27.407Z,15.13
2023-04-10T13:57:55.155Z,15.12
2023-04-10T14:00:23.228Z,15.13
2023-04-10T14:02:51.087Z,15.17
2023-04-10T14:05:19.167Z,15.20
2023-04-10T14:07:47.092Z,15.24
2023-04-10T14:10:14.768Z,15.30
2023-04-10T14:12:42.617Z,15.36
2023-04-10T14:15:12.832Z,15.44
2023-04-10T14:17:40.731Z,15.54
2023-04-10T14:20:11.309Z,15.66
2023-04-10T14:22:39.195Z,15.79
2023-04-10T14:25:13.193Z,15.92
2023-04-10T14:27:42.586Z,16.07
2023-04-10T14:30:10.718Z,16.24
2023-04-10T14:32:39.372Z,16.47
2023-04-10T14:35:07.817Z,16.69
2023-04-10T14:37:35.713Z,16.92
2023-04-10T14:40:04.897Z,17.42
2023-04-10T14:42:32.848Z,18.36
2023-04-10T14:45:00.622Z,19.87
2023-04-10T14:47:28.430Z,20.48
2023-04-10T14:49:56.240Z,20.52
2023-04-10T14:52:23.922Z,20.42
2023-04-10T14:54:51.668Z,20.35
2023-04-10T14:57:19.368Z,20.23
2023-04-10T14:59:47.128Z,20.08
2023-04-10T15:02:15.352Z,19.92
2023-04-10T15:04:43.195Z,19.86
2023-04-10T15:07:10.950Z,20.01
2023-04-10T15:09:38.632Z,20.09
2023-04-10T15:12:06.690Z,20.18
2023-04-10T15:14:34.545Z,20.14
2023-04-10T15:17:02.270Z,20.02
2023-04-10T15:19:30.387Z,20.07
2023-04-10T15:21:58.537Z,20.42
2023-04-10T15:24:27.129Z,20.46
2023-04-10T15:26:57.667Z,20.74
2023-04-10T15:29:25.415Z,21.50
2023-04-10T15:31:53.117Z,21.98
2023-04-10T15:34:20.735Z,22.30
2023-04-10T15:36:48.458Z,22.98
2023-04-10T15:39:16.391Z,24.12
2023-04-10T15:41:44.251Z,25.23
2023-04-10T15:44:11.937Z,26.15
2023-04-10T15:46:39.681Z,26.94
2023-04-10T15:49:07.470Z,27.50
2023-04-10T15:51:35.430Z,27.68
2023-04-10T15:54:04.841Z,27.64
2023-04-10T15:56:33.389Z,27.52
2023-04-10T15:59:01.546Z,27.39
2023-04-10T16:01:29.388Z,27.23
2023-04-10T16:03:57.431Z,26.97
2023-04-10T16:06:27.730Z,26.59
2023-04-10T16:08:55.456Z,26.26
2023-04-10T16:11:23.547Z,25.81
2023-04-10T16:13:51.330Z,25.32
2023-04-10T16:16:19.465Z,24.76
2023-04-10T16:18:47.703Z,24.23
2023-04-10T16:21:15.998Z,23.76
2023-04-10T16:23:43.831Z,23.28
2023-04-10T16:26:11.729Z,22.75
2023-04-10T16:28:39.765Z,22.15
2023-04-10T16:31:08.151Z,21.66
2023-04-10T16:33:36.146Z,21.27
2023-04-10T16:36:04.706Z,20.90
2023-04-10T16:38:35.774Z,20.47
2023-04-10T16:41:04.567Z,19.99
2023-04-10T16:43:32.461Z,19.51
2023-04-10T16:46:00.288Z,19.13
2023-04-10T16:48:28.088Z,18.77
2023-04-10T16:50:58.789Z,18.38
2023-04-10T16:53:26.482Z,18.04
2023-04-10T16:55:59.052Z,17.76
2023-04-10T16:58:28.090Z,17.52
2023-04-10T17:00:55.812Z,17.29
2023-04-10T17:03:23.605Z,17.06
2023-04-10T17:05:51.683Z,16.84
2023-04-10T17:08:19.341Z,16.59
2023-04-10T17:10:47.056Z,16.36
2023-04-10T17:13:14.828Z,16.14
2023-04-10T17:15:42.580Z,15.92
2023-04-10T17:18:11.210Z,15.69
2023-04-10T17:20:39.134Z,15.46
2023-04-10T17:23:07.157Z,15.25
2023-04-10T17:25:38.569Z,15.04
2023-04-10T17:28:06.441Z,14.81
2023-04-10T17:30:34.154Z,14.60
2023-04-10T17:33:01.875Z,14.40
2023-04-10T17:35:29.728Z,14.20
2023-04-10T17:37:57.404Z,14.02
2023-04-10T17:40:25.151Z,13.83
2023-04-10T17:42:53.025Z,13.63
2023-04-10T17:45:20.944Z,13.46
2023-04-10T17:47:48.681Z,13.30
2023-04-10T17:50:16.729Z,13.12
2023-04-10T17:52:44.534Z,12.92
2023-04-10T17:55:18.342Z,12.76
2023-04-10T17:57:49.087Z,12.61
2023-04-10T18:00:20.551Z,12.49
2023-04-10T18:02:57.869Z,12.37
2023-04-10T18:05:37.417Z,12.24
2023-04-10T18:08:06.205Z,12.12
2023-04-10T18:10:34.529Z,11.99
2023-04-10T18:13:02.603Z,11.89
2023-04-10T18:15:30.615Z,11.80
2023-04-10T18:17:58.592Z,11.70
2023-04-10T18:20:26.685Z,11.57
2023-04-10T18:22:54.528Z,11.46
2023-04-10T18:25:22.269Z,11.35
2023-04-10T18:28:09.637Z,11.22
2023-04-10T18:30:39.050Z,11.10
2023-04-10T18:33:10.658Z,11.00
2023-04-10T18:35:39.349Z,10.90
2023-04-10T18:38:07.309Z,10.81
2023-04-10T18:40:36.810Z,10.71
2023-04-10T18:43:05.120Z,10.61
2023-04-10T18:45:34.852Z,10.51
2023-04-10T18:48:03.238Z,10.42
2023-04-10T18:50:34.074Z,10.34
2023-04-10T18:53:01.920Z,10.26
2023-04-10T18:55:29.886Z,10.17
2023-04-10T18:57:57.928Z,10.09
2023-04-10T19:00:25.939Z,10.01
2023-04-10T19:02:54.543Z,9.94
2023-04-10T19:05:22.866Z,9.87
2023-04-10T19:08:03.120Z,9.80
2023-04-10T19:10:36.980Z,9.74
2023-04-10T19:13:04.836Z,9.69
2023-04-10T19:15:32.872Z,9.61
2023-04-10T19:18:01.042Z,9.55
2023-04-10T19:20:49.012Z,9.50
2023-04-10T19:23:16.697Z,9.43
2023-04-10T19:25:44.757Z,9.38
2023-04-10T19:28:12.446Z,9.34
2023-04-10T19:30:40.150Z,9.30
2023-04-10T19:33:07.902Z,9.26
2023-04-10T19:35:35.661Z,9.21
2023-04-10T19:38:03.415Z,9.17
2023-04-10T19:40:32.080Z,9.12
2023-04-10T19:43:01.914Z,9.06
2023-04-10T19:45:32.099Z,9.00
2023-04-10T19:48:00.519Z,8.93
2023-04-10T19:50:30.053Z,8.89
2023-04-10T19:52:58.077Z,8.83
2023-04-10T19:55:26.461Z,8.76
2023-04-10T19:57:54.845Z,8.72
2023-04-10T20:00:22.622Z,8.68
2023-04-10T20:02:50.456Z,8.62
2023-04-10T20:05:18.586Z,8.58
2023-04-10T20:07:46.697Z,8.54
2023-04-10T20:10:14.393Z,8.51
2023-04-10T20:12:42.125Z,8.46
2023-04-10T20:15:10.255Z,8.42
2023-04-10T20:17:38.580Z,8.37
2023-04-10T20:20:06.761Z,8.32
2023-04-10T20:22:34.382Z,8.28
2023-04-10T20:25:02.106Z,8.24
2023-04-10T20:27:29.789Z,8.19
2023-04-10T20:29:57.488Z,8.13
2023-04-10T20:32:25.399Z,8.04
2023-04-10T20:34:53.200Z,7.95
2023-04-10T20:37:21.948Z,7.89
2023-04-10T20:39:50.767Z,7.84
2023-04-10T20:42:18.805Z,7.81
2023-04-10T20:44:46.551Z,7.78
2023-04-10T20:47:14.274Z,7.76
2023-04-10T20:49:42.114Z,7.71
2023-04-10T20:52:09.796Z,7.65
2023-04-10T20:54:37.469Z,7.60
2023-04-10T20:57:05.914Z,7.56
2023-04-10T20:59:35.619Z,7.53
2023-04-10T21:02:03.829Z,7.50
2023-04-10T21:04:32.692Z,7.47
2023-04-10T21:07:00.363Z,7.48
2023-04-10T21:09:28.094Z,7.49
2023-04-10T21:11:55.773Z,7.52
2023-04-10T21:14:23.429Z,7.58
2023-04-10T21:16:51.267Z,7.61
2023-04-10T21:19:19.112Z,7.65
2023-04-10T21:21:46.782Z,7.74
2023-04-10T21:24:14.494Z,7.80
2023-04-10T21:26:42.219Z,7.87
2023-04-10T21:29:09.980Z,7.93
2023-04-10T21:31:37.767Z,7.99
2023-04-10T21:34:05.662Z,7.98
2023-04-10T21:36:33.441Z,7.95
2023-04-10T21:39:01.419Z,7.87
2023-04-10T21:41:29.163Z,7.83
2023-04-10T21:44:00.213Z,7.80
2023-04-10T21:46:27.964Z,7.72
2023-04-10T21:48:55.998Z,7.69
2023-04-10T21:51:25.738Z,7.63
2023-04-10T21:53:54.632Z,7.56
2023-04-10T21:56:22.343Z,7.50
2023-04-10T21:58:50.129Z,7.47
2023-04-10T22:01:17.861Z,7.41
2023-04-10T22:03:45.665Z,7.35
2023-04-10T22:06:13.504Z,7.31
2023-04-10T22:08:41.268Z,7.27
2023-04-10T22:11:08.986Z,7.23
2023-04-10T22:13:36.694Z,7.21
2023-04-10T22:16:05.677Z,7.18
2023-04-10T22:18:33.451Z,7.15
2023-04-10T22:21:01.215Z,7.12
2023-04-10T22:23:28.955Z,7.10
2023-04-10T22:25:59.088Z,7.07
2023-04-10T22:28:27.558Z,7.03
2023-04-10T22:30:55.367Z,6.99
2023-04-10T22:33:23.128Z,6.97
2023-04-10T22:35:52.434Z,6.96
2023-04-10T22:38:20.250Z,6.94
2023-04-10T22:40:47.967Z,6.91
2023-04-10T22:43:15.819Z,6.90
2023-04-10T22:45:43.462Z,6.88
2023-04-10T22:48:11.189Z,6.87
2023-04-10T22:50:39.010Z,6.86
2023-04-10T22:53:06.752Z,6.84
2023-04-10T22:55:36.899Z,6.81
2023-04-10T22:58:04.744Z,6.81
2023-04-10T23:00:35.489Z,6.82
2023-04-10T23:03:03.559Z,6.83
2023-04-10T23:05:33.013Z,6.86
2023-04-10T23:08:00.859Z,6.90
2023-04-10T23:10:28.583Z,6.94
2023-04-10T23:12:56.268Z,7.01
2023-04-10T23:15:23.953Z,7.04
2023-04-10T23:17:51.693Z,7.06
2023-04-10T23:20:19.571Z,7.11
2023-04-10T23:22:47.279Z,7.17
2023-04-10T23:25:15.601Z,7.22
2023-04-10T23:27:43.330Z,7.27
2023-04-10T23:30:11.379Z,7.33
2023-04-10T23:32:39.055Z,7.34
2023-04-10T23:35:06.993Z,7.35
2023-04-10T23:37:35.244Z,7.35
2023-04-10T23:40:02.963Z,7.30
2023-04-10T23:42:31.224Z,7.19
2023-04-10T23:44:58.852Z,7.12
2023-04-10T23:47:26.833Z,7.07
2023-04-10T23:49:54.890Z,6.99
2023-04-10T23:52:22.505Z,6.88
2023-04-10T23:54:50.436Z,6.79
2023-04-10T23:57:18.177Z,6.72
2023-04-10T23:59:46.678Z,6.68
